Fort Kent, Maine
Current Conditions -  °F | °C
As of 5:53 AM on Wednesday 26 Nov 2014 (Local Time) from KFVE Reporting Station
Clear Clear  
Wind Chill: 25°   Ceiling: Unl
Heat Index: 32°   Visibility: 10mi
Dew Point: 22°   Wind: 8mph
Humidity: 66%   Direction: 250°WSW
Pressure: 30.04"   Gusts: NA
Location:  47.26°N, 68.59°W
Report Text: KFVE 261053Z AUTO 25007KT 10SM CLR 00/M06 A3004 RMK AO2 SLP181 T00001056
Loading
Personal Weather Stations






























Interactive Weather Map New forecast layout! Learn more

10-Day Weather Forecast

Advertisements
Track Severe Weather on mobile